createdAt,value
2019-05-20T04:55:23.844Z,96822.23
2019-05-20T04:57:59.246Z,96930.89
2019-05-20T05:00:55.565Z,96821.62
2019-05-20T05:03:58.908Z,97074.71
2019-05-20T05:06:47.279Z,97084.20
2019-05-20T05:09:24.611Z,96973.20
2019-05-20T05:11:59.506Z,96538.95
2019-05-20T05:14:53.703Z,96154.63
2019-05-20T14:21:06.819Z,98231.66
2019-05-20T14:23:40.744Z,97973.31
2019-05-20T14:26:15.010Z,96798.47
2019-05-20T14:29:25.038Z,95508.41
2019-05-20T14:36:08.429Z,96559.89
2019-05-20T14:38:38.827Z,96974.98
2019-05-20T14:41:26.932Z,97284.96
2019-05-20T14:44:20.675Z,97278.08
2019-05-20T14:47:30.743Z,97144.43
2019-05-20T14:50:04.449Z,97095.91
2019-05-20T14:52:35.844Z,97026.09
2019-05-20T14:55:08.661Z,96814.83
2019-05-20T14:57:45.286Z,96413.28
2019-05-20T15:00:25.186Z,95093.33
2019-05-20T15:03:14.233Z,94811.79
2019-05-20T15:05:47.185Z,94781.47
2019-05-20T15:08:21.278Z,94784.88
2019-05-20T15:10:52.474Z,94783.03
2019-05-20T15:13:25.304Z,94781.52
2019-05-20T15:15:57.998Z,94782.72
2019-05-20T15:18:32.625Z,94782.79
2019-05-20T15:21:05.634Z,94783.98
2019-05-20T15:23:38.913Z,94785.50
2019-05-20T15:26:11.951Z,94784.30
2019-05-20T15:28:45.331Z,94785.11
2019-05-20T15:31:16.514Z,94793.83
2019-05-20T15:33:48.994Z,94791.43
2019-05-20T15:36:20.316Z,94793.72
2019-05-20T15:38:53.102Z,94783.91
2019-05-20T15:41:27.265Z,94791.86
2019-05-20T15:43:58.289Z,94788.05
2019-05-20T15:46:30.936Z,94786.84
2019-05-20T15:49:04.951Z,94790.06
2019-05-20T15:51:37.595Z,94782.20
2019-05-20T15:54:10.365Z,94781.80
2019-05-20T15:56:43.338Z,94779.69
2019-05-20T15:59:19.460Z,94782.33
2019-05-20T16:01:53.293Z,94779.87
2019-05-20T16:04:39.219Z,94782.25
2019-05-20T16:07:19.129Z,94784.77
2019-05-20T16:10:00.426Z,94785.75
2019-05-20T16:12:39.718Z,94779.17
2019-05-20T16:15:16.106Z,94785.03
2019-05-20T16:17:52.323Z,94783.77
2019-05-20T16:20:32.568Z,94785.23
2019-05-20T16:23:05.405Z,94803.66
2019-05-20T16:25:36.320Z,94809.63
2019-05-20T16:28:12.247Z,94797.83
2019-05-20T16:30:44.763Z,94794.28
2019-05-20T16:33:17.291Z,94791.62
2019-05-20T16:35:50.983Z,94798.52
2019-05-20T16:38:23.293Z,94795.14
2019-05-20T16:40:56.297Z,94787.34
2019-05-20T16:43:28.733Z,94795.81
2019-05-20T16:46:02.393Z,94796.73
2019-05-20T16:48:36.704Z,94799.25
2019-05-20T16:51:10.470Z,94800.77
2019-05-20T16:53:43.013Z,94796.75
2019-05-20T16:56:17.335Z,94795.48
2019-05-20T16:58:50.535Z,94784.48
2019-05-20T17:01:24.290Z,94790.95
2019-05-20T17:03:56.673Z,94789.08
2019-05-20T17:06:29.407Z,94793.27
